Time;durP1;ratioP1;P1;durP2;ratioP2;P2;SDS_P1;SDS_P2;PMS_P1;PMS_P2;Temp;Humidity;BMP_temperature;BMP_pressure;BME280_temperature;BME280_humidity;BME280_pressure;Samples;Min_cycle;Max_cycle;Signal;HPM_P1;HPM_P2
2023/05/05 00:00:09;;;;;;;;;;;;;;;28.57;30.22;101296.88;4132551;28;19922;-79
2023/05/05 00:02:11;;;;;;;;;;;;;;;28.57;30.31;101302.31;4115366;28;19925;-77
2023/05/05 00:04:12;;;;;;;;;;;;;;;28.57;29.99;101305.88;4132900;28;20023;-78
2023/05/05 00:06:14;;;;;;;;;;;;;;;28.58;30.05;101301.28;4132800;28;19925;-78
2023/05/05 00:08:16;;;;;;;;;;;;;;;28.57;30.29;101303.16;4131687;28;19921;-79
2023/05/05 00:10:18;;;;;;;;;;;;;;;28.55;30.26;101293.50;4132788;28;19965;-78
2023/05/05 00:12:19;;;;;;;;;;;;;;;28.54;30.14;101292.66;4132769;28;20431;-79
2023/05/05 00:14:21;;;;;;;;;;;;;;;28.56;30.24;101290.63;4132563;28;19961;-79
2023/05/05 00:16:22;;;;;;;;;;;;;;;28.55;30.19;101293.50;4132295;28;19922;-78
2023/05/05 00:18:24;;;;;;;;;;;;;;;28.56;30.38;101295.22;4131599;28;19926;-78
2023/05/05 00:20:26;;;;;;;;;;;;;;;28.57;30.17;101297.75;4132532;28;19922;-79
2023/05/05 00:22:27;;;;;;;;;;;;;;;28.59;30.27;101300.28;4132232;28;19949;-78
2023/05/05 00:24:29;;;;;;;;;;;;;;;28.59;30.28;101306.53;4132521;28;20299;-79
2023/05/05 00:26:30;;;;;;;;;;;;;;;28.60;30.01;101299.28;4132539;28;20371;-79
2023/05/05 00:28:32;;;;;;;;;;;;;;;28.59;30.01;101306.53;4131657;28;19929;-79
2023/05/05 00:30:33;;;;;;;;;;;;;;;28.59;30.30;101301.13;4131954;28;19922;-78
2023/05/05 00:32:35;;;;;;;;;;;;;;;28.58;29.86;101293.19;4132436;28;19949;-78
2023/05/05 00:34:37;;;;;;;;;;;;;;;28.57;29.98;101292.34;4132239;28;19922;-78
2023/05/05 00:36:38;;;;;;;;;;;;;;;28.58;30.35;101287.75;4131091;28;19921;-79
2023/05/05 00:38:40;;;;;;;;;;;;;;;28.59;30.33;101284.06;4131244;28;20350;-79
2023/05/05 00:40:41;;;;;;;;;;;;;;;28.59;30.38;101284.06;4131205;28;19921;-79
2023/05/05 00:42:47;;;;;;;;;;;;;;;28.59;30.38;101278.66;4131836;28;19922;-79
2023/05/05 00:44:48;;;;;;;;;;;;;;;28.59;30.35;101279.47;4131999;28;20322;-78
2023/05/05 00:46:50;;;;;;;;;;;;;;;28.61;30.06;101287.47;4131982;28;19957;-78
2023/05/05 00:48:52;;;;;;;;;;;;;;;28.62;30.28;101281.03;4131085;28;20430;-78
2023/05/05 00:50:53;;;;;;;;;;;;;;;28.60;30.03;101281.19;4132218;28;19921;-78
2023/05/05 00:52:56;;;;;;;;;;;;;;;28.59;30.04;101284.88;4132063;28;19929;-78
2023/05/05 00:54:58;;;;;;;;;;;;;;;28.60;30.23;101288.47;4132151;28;19965;-79
2023/05/05 00:57:01;;;;;;;;;;;;;;;28.59;30.35;101290.31;4132230;28;20383;-78
2023/05/05 00:59:03;;;;;;;;;;;;;;;28.60;30.34;101286.59;4129707;28;20037;-78
2023/05/05 01:01:04;;;;;;;;;;;;;;;28.59;30.27;101295.72;4131876;28;19972;-78
2023/05/05 01:03:06;;;;;;;;;;;;;;;28.60;30.39;101299.28;4131967;28;19921;-78
2023/05/05 01:05:08;;;;;;;;;;;;;;;28.60;30.20;101304.69;4132095;28;20016;-79
2023/05/05 01:07:25;;;;;;;;;;;;;;;28.61;30.22;101299.13;4131938;28;19976;-77
2023/05/05 01:09:27;;;;;;;;;;;;;;;28.62;30.04;101298.13;4131257;28;19936;-79
2023/05/05 01:11:41;;;;;;;;;;;;;;;28.63;30.32;101293.53;4131803;28;20405;-78
2023/05/05 01:13:56;;;;;;;;;;;;;;;28.60;30.24;101294.72;4131636;28;19921;-78
2023/05/05 01:16:17;;;;;;;;;;;;;;;28.61;30.16;101299.13;4131559;28;19929;-79
2023/05/05 01:18:39;;;;;;;;;;;;;;;28.61;29.97;101284.75;4130617;28;19953;-79
2023/05/05 01:20:45;;;;;;;;;;;;;;;28.61;30.15;101287.47;4131496;28;19925;-79
2023/05/05 01:22:55;;;;;;;;;;;;;;;28.62;29.91;101283.75;4131466;28;19957;-78
2023/05/05 01:25:16;;;;;;;;;;;;;;;28.63;30.23;101274.59;4131919;28;19921;-79
2023/05/05 01:27:44;;;;;;;;;;;;;;;28.63;30.36;101275.47;4131373;28;20016;-78
2023/05/05 01:29:51;;;;;;;;;;;;;;;28.64;30.16;101270.88;4131474;28;19930;-79
2023/05/05 01:32:00;;;;;;;;;;;;;;;28.64;30.25;101277.16;4131710;28;19922;-78
2023/05/05 01:34:07;;;;;;;;;;;;;;;28.63;30.33;101272.75;4131761;28;19921;-79
2023/05/05 01:36:14;;;;;;;;;;;;;;;28.64;30.27;101269.03;4131387;28;19976;-77
2023/05/05 01:38:18;;;;;;;;;;;;;;;28.63;30.27;101270.06;4130775;28;20016;-78
2023/05/05 01:40:21;;;;;;;;;;;;;;;28.62;30.33;101265.66;4131426;28;19922;-79
2023/05/05 01:42:24;;;;;;;;;;;;;;;28.62;30.37;101259.41;4131126;28;20020;-79
2023/05/05 01:44:26;;;;;;;;;;;;;;;28.62;30.17;101267.50;4131753;28;19929;-79
2023/05/05 01:46:29;;;;;;;;;;;;;;;28.63;30.17;101261.94;4114184;28;20021;-78
2023/05/05 01:48:32;;;;;;;;;;;;;;;28.63;30.25;101250.25;4130374;28;20004;-78
2023/05/05 01:50:34;;;;;;;;;;;;;;;28.64;30.23;101251.94;4131036;28;19993;-78
2023/05/05 01:52:37;;;;;;;;;;;;;;;28.64;30.16;101252.81;4131291;28;20331;-79
2023/05/05 01:54:39;;;;;;;;;;;;;;;28.63;30.28;101253.81;4131126;28;20012;-78
2023/05/05 01:56:41;;;;;;;;;;;;;;;28.63;30.06;101248.41;4130972;28;19922;-78
2023/05/05 01:58:43;;;;;;;;;;;;;;;28.65;30.08;101256.34;4130270;28;19925;-78
2023/05/05 02:00:45;;;;;;;;;;;;;;;28.64;30.39;101258.22;4131122;28;19929;-78
2023/05/05 02:02:48;;;;;;;;;;;;;;;28.61;30.47;101263.09;4131385;28;19922;-78
2023/05/05 02:04:51;;;;;;;;;;;;;;;28.62;30.18;101267.50;4113947;28;19922;-79
2023/05/05 02:06:55;;;;;;;;;;;;;;;28.64;30.29;101274.47;4131216;28;19928;-79
2023/05/05 02:08:57;;;;;;;;;;;;;;;28.58;30.10;101256.16;4130113;28;19926;-78
2023/05/05 02:10:59;;;;;;;;;;;;;;;28.64;30.34;101269.03;4130645;28;19922;-78
2023/05/05 02:13:01;;;;;;;;;;;;;;;28.63;30.16;101270.06;4131070;28;19926;-78
2023/05/05 02:15:04;;;;;;;;;;;;;;;28.64;30.37;101263.63;4131226;28;20358;-79
2023/05/05 02:17:06;;;;;;;;;;;;;;;28.64;30.28;101263.63;4131006;28;19933;-80
2023/05/05 02:19:07;;;;;;;;;;;;;;;28.63;30.37;101259.22;4130330;28;19925;-79
2023/05/05 02:21:09;;;;;;;;;;;;;;;28.63;30.27;101264.63;4133565;28;19921;-79
2023/05/05 02:23:11;;;;;;;;;;;;;;;28.63;30.40;101274.59;4134147;28;20359;-79
2023/05/05 02:25:12;;;;;;;;;;;;;;;28.63;30.14;101267.34;4133792;28;19929;-79
2023/05/05 02:27:16;;;;;;;;;;;;;;;28.62;30.49;101289.16;4134210;28;20013;-78
2023/05/05 02:29:21;;;;;;;;;;;;;;;28.63;30.37;101285.41;4133418;28;20004;-78
2023/05/05 02:31:24;;;;;;;;;;;;;;;28.64;30.44;101297.94;4133985;28;20009;-79
2023/05/05 02:33:28;;;;;;;;;;;;;;;28.65;30.42;101303.22;4134089;28;19926;-79
2023/05/05 02:35:35;;;;;;;;;;;;;;;28.66;29.97;101306.78;4134249;28;19922;-78
2023/05/05 02:37:37;;;;;;;;;;;;;;;28.67;30.25;101305.75;4133888;28;19932;-79
2023/05/05 02:39:46;;;;;;;;;;;;;;;28.65;30.39;101299.66;4132689;28;20391;-79
2023/05/05 02:41:48;;;;;;;;;;;;;;;28.63;30.31;101296.25;4134474;28;20379;-79
2023/05/05 02:43:50;;;;;;;;;;;;;;;28.64;30.53;101295.25;4133951;28;19922;-79
2023/05/05 02:45:51;;;;;;;;;;;;;;;28.64;30.29;101300.66;4134234;28;19929;-79
2023/05/05 02:47:53;;;;;;;;;;;;;;;28.62;30.34;101297.28;4133372;28;20020;-79
2023/05/05 02:49:54;;;;;;;;;;;;;;;28.61;30.29;101292.88;4133966;28;20303;-78
2023/05/05 02:51:56;;;;;;;;;;;;;;;28.63;30.52;101289.00;4133943;28;19933;-78
2023/05/05 02:53:58;;;;;;;;;;;;;;;28.63;30.46;101289.00;4133831;28;20284;-79
2023/05/05 02:56:06;;;;;;;;;;;;;;;28.64;30.48;101284.41;4116750;28;19926;-78
2023/05/05 02:58:29;;;;;;;;;;;;;;;28.64;30.16;101290.69;4133317;28;19922;-79
2023/05/05 03:00:42;;;;;;;;;;;;;;;28.65;30.45;101278.00;4133845;28;19952;-79
2023/05/05 03:02:56;;;;;;;;;;;;;;;28.64;30.15;101279.88;4134070;28;20276;-78
2023/05/05 03:05:01;;;;;;;;;;;;;;;28.64;30.38;101288.00;4133965;28;20112;-79
2023/05/05 03:07:06;;;;;;;;;;;;;;;28.66;30.49;101288.66;4133433;28;20391;-79
2023/05/05 03:09:09;;;;;;;;;;;;;;;28.64;30.17;101289.84;4132416;28;19953;-79
2023/05/05 03:11:37;;;;;;;;;;;;;;;28.62;30.14;101287.28;4133605;28;19921;-79
2023/05/05 03:13:41;;;;;;;;;;;;;;;28.64;30.48;101271.75;4129231;28;20371;-78
2023/05/05 03:15:45;;;;;;;;;;;;;;;28.66;30.41;101267.00;4133466;28;19922;-79
2023/05/05 03:17:47;;;;;;;;;;;;;;;28.66;30.58;101258.06;4133844;28;19926;-78
2023/05/05 03:19:50;;;;;;;;;;;;;;;28.67;30.46;101259.75;4132978;28;19922;-78
2023/05/05 03:21:51;;;;;;;;;;;;;;;28.66;30.10;101249.94;4133404;28;19929;-78
2023/05/05 03:23:53;;;;;;;;;;;;;;;28.65;30.27;101249.09;4133104;28;19928;-78
2023/05/05 03:25:54;;;;;;;;;;;;;;;28.65;30.42;101251.81;4133349;28;19980;-78
2023/05/05 03:27:56;;;;;;;;;;;;;;;28.65;30.22;101253.66;4131532;28;20043;-79
2023/05/05 03:29:58;;;;;;;;;;;;;;;28.66;30.30;101260.75;4133008;28;20364;-78
2023/05/05 03:32:00;;;;;;;;;;;;;;;28.64;30.38;101263.63;4133186;28;20020;-79
2023/05/05 03:34:01;;;;;;;;;;;;;;;28.65;30.30;101270.75;4133329;28;19929;-78
2023/05/05 03:36:03;;;;;;;;;;;;;;;28.67;30.50;101279.53;4133285;28;19928;-78
2023/05/05 03:38:04;;;;;;;;;;;;;;;28.67;30.53;101284.94;4132323;28;19925;-79
2023/05/05 03:40:06;;;;;;;;;;;;;;;28.67;30.24;101284.94;4115640;28;20022;-79
2023/05/05 03:42:08;;;;;;;;;;;;;;;28.68;30.49;101291.22;4133133;28;19922;-79
2023/05/05 03:44:10;;;;;;;;;;;;;;;28.65;30.43;101287.00;4132962;28;20000;-79
2023/05/05 03:46:11;;;;;;;;;;;;;;;28.68;30.24;101302.06;4133236;28;19922;-78
2023/05/05 03:48:13;;;;;;;;;;;;;;;28.67;30.47;101303.06;4132410;28;19932;-79
2023/05/05 03:50:15;;;;;;;;;;;;;;;28.68;30.44;101304.75;4115910;28;19955;-78
2023/05/05 03:52:17;;;;;;;;;;;;;;;28.67;30.44;101303.06;4132855;28;19925;-79
2023/05/05 03:54:18;;;;;;;;;;;;;;;28.67;30.21;101311.19;4133153;28;19925;-79
2023/05/05 03:56:20;;;;;;;;;;;;;;;28.67;30.43;101309.31;4132769;28;20020;-78
2023/05/05 03:58:21;;;;;;;;;;;;;;;28.66;30.51;101299.47;4114989;28;19928;-78
2023/05/05 04:00:23;;;;;;;;;;;;;;;28.65;30.34;101303.22;4132820;28;19944;-79
2023/05/05 04:02:24;;;;;;;;;;;;;;;28.65;30.37;101303.22;4133125;28;19928;-78
2023/05/05 04:04:26;;;;;;;;;;;;;;;28.67;30.36;101303.91;4133036;28;19921;-78
2023/05/05 04:06:27;;;;;;;;;;;;;;;28.67;30.15;101309.31;4132691;28;19926;-79
2023/05/05 04:08:29;;;;;;;;;;;;;;;28.67;30.50;101308.47;4132080;28;19925;-79
2023/05/05 04:10:31;;;;;;;;;;;;;;;28.68;30.47;101321.00;4132828;28;19922;-79
2023/05/05 04:12:32;;;;;;;;;;;;;;;28.69;30.60;101320.03;4133026;28;19922;-79
2023/05/05 04:14:34;;;;;;;;;;;;;;;28.67;30.56;101320.13;4132880;28;19956;-77
2023/05/05 04:16:36;;;;;;;;;;;;;;;28.64;30.16;101317.75;4132759;28;19925;-78
2023/05/05 04:18:37;;;;;;;;;;;;;;;28.65;30.47;101319.47;4132002;28;19929;-77
2023/05/05 04:20:39;;;;;;;;;;;;;;;28.67;30.62;101316.59;4132592;28;19922;-78
2023/05/05 04:22:41;;;;;;;;;;;;;;;28.66;30.16;101313.00;4132134;28;19922;-78
2023/05/05 04:24:42;;;;;;;;;;;;;;;28.66;30.49;101318.44;4132424;28;20071;-78
2023/05/05 04:26:44;;;;;;;;;;;;;;;28.68;30.27;101318.28;4132399;28;19930;-78
2023/05/05 04:28:45;;;;;;;;;;;;;;;28.68;30.21;101312.88;4131393;28;19922;-78
2023/05/05 04:30:47;;;;;;;;;;;;;;;28.67;30.35;101322.84;4132502;28;19976;-78
2023/05/05 04:32:48;;;;;;;;;;;;;;;28.68;30.59;101318.28;4132295;28;19922;-78
2023/05/05 04:34:50;;;;;;;;;;;;;;;28.68;30.53;101323.72;4132191;28;20348;-78
2023/05/05 04:36:51;;;;;;;;;;;;;;;28.67;30.53;101320.13;4132074;28;20034;-78
2023/05/05 04:38:53;;;;;;;;;;;;;;;28.67;30.55;101330.13;4131592;28;19933;-78
2023/05/05 04:40:55;;;;;;;;;;;;;;;28.67;30.59;101332.84;4132157;28;19922;-78
2023/05/05 04:42:56;;;;;;;;;;;;;;;28.67;30.54;101330.97;4131833;28;20355;-78
2023/05/05 04:44:58;;;;;;;;;;;;;;;28.67;30.48;101333.66;4132518;28;19930;-78
2023/05/05 04:46:59;;;;;;;;;;;;;;;28.69;30.67;101334.41;4132708;28;19968;-77
2023/05/05 04:49:03;;;;;;;;;;;;;;;28.68;30.79;101343.53;4132395;28;19934;-77
2023/05/05 04:51:05;;;;;;;;;;;;;;;28.66;30.62;101336.53;4132308;28;19921;-78
2023/05/05 04:53:07;;;;;;;;;;;;;;;28.67;30.60;101344.50;4132754;28;19922;-78
2023/05/05 04:55:09;;;;;;;;;;;;;;;28.68;30.30;101339.94;4132583;28;19926;-78
2023/05/05 04:57:11;;;;;;;;;;;;;;;28.67;30.52;101340.94;4132560;28;20375;-78
2023/05/05 04:59:15;;;;;;;;;;;;;;;28.68;30.43;101337.25;4131799;28;20414;-78
2023/05/05 05:01:17;;;;;;;;;;;;;;;28.67;30.62;101338.25;4132541;28;19933;-77
2023/05/05 05:03:18;;;;;;;;;;;;;;;28.68;30.61;101339.94;4132464;28;19926;-78
2023/05/05 05:05:20;;;;;;;;;;;;;;;28.67;30.68;101349.06;4132262;28;19936;-77
2023/05/05 05:07:23;;;;;;;;;;;;;;;28.66;30.67;101347.38;4132553;28;20371;-78
2023/05/05 05:09:24;;;;;;;;;;;;;;;28.67;30.88;101355.31;4131563;28;19929;-77
2023/05/05 05:11:26;;;;;;;;;;;;;;;28.67;30.78;101351.78;4131710;28;20343;-78
2023/05/05 05:13:28;;;;;;;;;;;;;;;28.68;30.70;101348.06;4131667;28;20020;-78
2023/05/05 05:15:29;;;;;;;;;;;;;;;28.69;30.78;101352.50;4131509;28;19921;-78
2023/05/05 05:17:32;;;;;;;;;;;;;;;28.68;30.41;101350.78;4131731;28;19967;-77
2023/05/05 05:19:33;;;;;;;;;;;;;;;28.66;30.83;101345.50;4130185;28;19964;-77
2023/05/05 05:21:35;;;;;;;;;;;;;;;28.68;30.99;101348.06;4131686;28;19953;-77
2023/05/05 05:23:36;;;;;;;;;;;;;;;28.67;30.76;101340.94;4131423;28;19922;-77
2023/05/05 05:25:38;;;;;;;;;;;;;;;28.68;30.55;101343.53;4130254;28;19933;-78
2023/05/05 05:27:40;;;;;;;;;;;;;;;28.69;30.76;101347.09;4131486;28;19926;-78
2023/05/05 05:29:42;;;;;;;;;;;;;;;28.66;30.85;101350.06;4130699;28;19956;-78
2023/05/05 05:31:44;;;;;;;;;;;;;;;28.66;30.94;101359.03;4131351;28;19928;-78
2023/05/05 05:33:45;;;;;;;;;;;;;;;28.67;30.95;101360.72;4131233;28;19953;-78
2023/05/05 05:35:46;;;;;;;;;;;;;;;28.65;30.97;101360.06;4131290;28;19968;-78
2023/05/05 05:37:49;;;;;;;;;;;;;;;28.66;31.11;101366.31;4131465;28;20318;-78
2023/05/05 05:39:51;;;;;;;;;;;;;;;28.66;30.91;101366.31;4130298;28;19922;-78
2023/05/05 05:41:52;;;;;;;;;;;;;;;28.65;31.02;101370.03;4131380;28;20286;-78
2023/05/05 05:43:54;;;;;;;;;;;;;;;28.65;30.73;101370.03;4131411;28;20346;-78
2023/05/05 05:45:55;;;;;;;;;;;;;;;28.66;30.73;101366.31;4131271;28;19921;-78
2023/05/05 05:47:57;;;;;;;;;;;;;;;28.67;30.99;101373.44;4131177;28;19925;-78
2023/05/05 05:49:58;;;;;;;;;;;;;;;28.68;31.00;101367.00;4130410;28;19930;-77
2023/05/05 05:52:00;;;;;;;;;;;;;;;28.67;30.98;101366.16;4130173;28;19926;-78
2023/05/05 05:54:02;;;;;;;;;;;;;;;28.69;30.75;101374.16;4131024;28;19922;-77
2023/05/05 05:56:04;;;;;;;;;;;;;;;28.69;31.11;101377.72;4130742;28;19921;-78
2023/05/05 05:58:05;;;;;;;;;;;;;;;28.69;30.93;101376.88;4132445;28;19991;-78
2023/05/05 06:00:07;;;;;;;;;;;;;;;28.67;30.93;101384.25;4135355;28;19917;-78
2023/05/05 06:02:09;;;;;;;;;;;;;;;28.67;31.07;101374.25;4133769;28;20055;-78
2023/05/05 06:04:12;;;;;;;;;;;;;;;28.66;30.76;101379.84;4130820;28;20370;-77
2023/05/05 06:06:13;;;;;;;;;;;;;;;28.67;30.96;101382.38;4131153;28;19926;-78
2023/05/05 06:08:15;;;;;;;;;;;;;;;28.68;31.12;101388.66;4131023;28;19922;-78
2023/05/05 06:10:16;;;;;;;;;;;;;;;28.67;31.25;101385.09;4130283;28;20414;-77
2023/05/05 06:12:30;;;;;;;;;;;;;;;28.67;31.18;101381.53;4131205;28;19956;-78
2023/05/05 06:14:32;;;;;;;;;;;;;;;28.68;31.14;101385.97;4131202;28;19944;-77
2023/05/05 06:16:33;;;;;;;;;;;;;;;28.68;31.17;101383.25;4131325;28;20038;-77
2023/05/05 06:18:35;;;;;;;;;;;;;;;28.68;31.11;101396.78;4130247;28;19921;-78
2023/05/05 06:20:37;;;;;;;;;;;;;;;28.66;31.29;101399.63;4130552;28;19929;-78
2023/05/05 06:22:38;;;;;;;;;;;;;;;28.68;31.25;101402.19;4130813;28;20329;-77
2023/05/05 06:24:40;;;;;;;;;;;;;;;28.67;31.22;101405.91;4131008;28;20344;-78
2023/05/05 06:26:41;;;;;;;;;;;;;;;28.65;31.19;101406.06;4130769;28;19922;-78
2023/05/05 06:28:43;;;;;;;;;;;;;;;28.66;31.28;101405.03;4130031;28;19921;-78
2023/05/05 06:30:45;;;;;;;;;;;;;;;28.64;31.36;101404.38;4130685;28;19968;-77
2023/05/05 06:32:46;;;;;;;;;;;;;;;28.65;31.33;101400.66;4130418;28;19921;-77
2023/05/05 06:34:48;;;;;;;;;;;;;;;28.67;31.40;101397.78;4130832;28;19957;-77
2023/05/05 06:36:50;;;;;;;;;;;;;;;28.65;31.47;101397.09;4129617;28;19928;-78
2023/05/05 06:38:51;;;;;;;;;;;;;;;28.67;31.30;101395.09;4130228;28;19960;-77
2023/05/05 06:40:53;;;;;;;;;;;;;;;28.67;31.02;101390.50;4130662;28;19922;-77
2023/05/05 06:42:55;;;;;;;;;;;;;;;28.67;31.07;101392.38;4112914;28;20006;-77
2023/05/05 06:44:56;;;;;;;;;;;;;;;28.66;31.23;101391.50;4117163;28;20367;-74
2023/05/05 06:46:58;;;;;;;;;;;;;;;28.68;31.35;101380.53;4097094;28;19922;-75
2023/05/05 06:48:59;;;;;;;;;;;;;;;28.65;31.07;101384.41;4112406;28;20013;-74
2023/05/05 06:51:01;;;;;;;;;;;;;;;28.64;31.48;101374.59;4114324;28;19930;-74
2023/05/05 06:53:02;;;;;;;;;;;;;;;28.66;31.51;101379.84;4114343;28;19961;-75
2023/05/05 06:55:04;;;;;;;;;;;;;;;28.65;31.59;101381.72;4114381;28;20348;-77
2023/05/05 06:57:06;;;;;;;;;;;;;;;28.67;31.63;101378.84;4114557;28;20013;-78
2023/05/05 06:59:07;;;;;;;;;;;;;;;28.68;31.42;101383.25;4113542;28;19933;-78
2023/05/05 07:01:09;;;;;;;;;;;;;;;28.68;31.33;101384.13;4114434;28;19926;-78
2023/05/05 07:03:10;;;;;;;;;;;;;;;28.67;31.54;101379.69;4113047;28;19929;-78
2023/05/05 07:05:12;;;;;;;;;;;;;;;28.67;31.36;101384.25;4114617;28;20319;-78
2023/05/05 07:07:14;;;;;;;;;;;;;;;28.67;31.51;101389.66;4117080;28;20318;-78
2023/05/05 07:09:15;;;;;;;;;;;;;;;28.67;31.60;101395.09;4116600;28;19922;-78
2023/05/05 07:11:18;;;;;;;;;;;;;;;28.67;31.60;101390.50;4117568;28;19922;-78
2023/05/05 07:13:20;;;;;;;;;;;;;;;28.66;31.47;101394.22;4117484;28;20047;-78
2023/05/05 07:15:22;;;;;;;;;;;;;;;28.65;31.54;101397.97;4117207;28;19922;-79
2023/05/05 07:17:29;;;;;;;;;;;;;;;28.66;31.63;101396.09;4117645;28;19922;-79
2023/05/05 07:19:30;;;;;;;;;;;;;;;28.67;31.51;101404.03;4116638;28;19944;-79
2023/05/05 07:21:33;;;;;;;;;;;;;;;28.65;31.30;101406.06;4117494;28;20355;-78
2023/05/05 07:23:36;;;;;;;;;;;;;;;28.66;31.37;101405.03;4117268;28;20005;-79
2023/05/05 07:25:37;;;;;;;;;;;;;;;28.67;31.34;101400.50;4122232;28;20153;-79
2023/05/05 07:27:39;;;;;;;;;;;;;;;28.65;31.29;101391.66;4133477;28;20382;-78
2023/05/05 07:29:41;;;;;;;;;;;;;;;28.66;31.63;101396.09;4132214;28;19921;-78
2023/05/05 07:31:42;;;;;;;;;;;;;;;28.66;31.54;101396.09;4133358;28;19976;-78
2023/05/05 07:33:44;;;;;;;;;;;;;;;28.66;31.54;101390.66;4133192;28;19965;-78
2023/05/05 07:35:45;;;;;;;;;;;;;;;28.68;31.32;101384.13;4133181;28;19921;-79
2023/05/05 07:37:47;;;;;;;;;;;;;;;28.68;31.38;101375.13;4133337;28;19925;-79
2023/05/05 07:39:49;;;;;;;;;;;;;;;28.69;31.56;101401.22;4132083;28;19922;-79
2023/05/05 07:41:50;;;;;;;;;;;;;;;28.68;31.56;101392.25;4133365;28;19926;-79
2023/05/05 07:43:52;;;;;;;;;;;;;;;28.66;31.53;101383.38;4133069;28;19921;-79
2023/05/05 07:45:53;;;;;;;;;;;;;;;28.68;31.63;101383.25;4133298;28;19921;-80
2023/05/05 07:47:55;;;;;;;;;;;;;;;28.69;31.58;101371.47;4133079;28;19921;-80
2023/05/05 07:49:56;;;;;;;;;;;;;;;28.69;31.56;101375.00;4116321;28;20405;-76
2023/05/05 07:51:58;;;;;;;;;;;;;;;28.62;31.67;101378.47;4100686;29;19929;-78
2023/05/05 07:54:00;;;;;;;;;;;;;;;28.46;31.87;101376.47;4112911;28;20047;-75
2023/05/05 07:56:02;;;;;;;;;;;;;;;28.34;31.93;101374.00;4115847;28;20376;-72
2023/05/05 07:58:03;;;;;;;;;;;;;;;28.26;32.18;101387.44;4125363;28;20449;-76
2023/05/05 08:00:05;;;;;;;;;;;;;;;28.14;32.72;101392.28;4122508;28;19922;-77
2023/05/05 08:02:08;;;;;;;;;;;;;;;28.09;32.94;101399.13;4114969;28;19933;-79
2023/05/05 08:04:10;;;;;;;;;;;;;;;28.01;33.03;101403.41;4125573;28;19976;-78
2023/05/05 08:06:14;;;;;;;;;;;;;;;27.99;32.96;101399.16;4117673;28;19953;-77
2023/05/05 08:08:16;;;;;;;;;;;;;;;27.96;32.99;101407.56;4120585;28;19961;-80
2023/05/05 08:10:17;;;;;;;;;;;;;;;27.88;33.28;101413.75;4128758;28;20336;-77
2023/05/05 08:12:19;;;;;;;;;;;;;;;27.80;32.93;101409.06;4119824;28;19949;-80
2023/05/05 08:14:20;;;;;;;;;;;;;;;27.75;33.59;101408.69;4128619;28;20384;-80
2023/05/05 08:16:22;;;;;;;;;;;;;;;27.63;33.64;101402.63;4132251;28;19922;-80
2023/05/05 08:18:24;;;;;;;;;;;;;;;27.55;33.59;101411.50;4120028;28;19922;-74
2023/05/05 08:20:27;;;;;;;;;;;;;;;27.51;33.55;101412.81;4128865;28;19964;-74
2023/05/05 08:22:28;;;;;;;;;;;;;;;27.37;33.08;101413.25;4129562;28;19929;-75
2023/05/05 08:24:30;;;;;;;;;;;;;;;27.32;33.25;101420.97;4105148;28;19929;-76
2023/05/05 08:26:31;;;;;;;;;;;;;;;27.19;33.48;101408.59;4131994;28;19926;-76
2023/05/05 08:28:34;;;;;;;;;;;;;;;27.21;33.30;101416.59;4119811;28;19969;-78
2023/05/05 08:30:35;;;;;;;;;;;;;;;27.17;33.33;101416.03;4123314;28;19922;-78
2023/05/05 08:32:37;;;;;;;;;;;;;;;27.16;33.36;101417.03;4116992;28;20380;-78
2023/05/05 08:34:39;;;;;;;;;;;;;;;27.12;33.15;101418.28;4126622;28;19968;-77
2023/05/05 08:36:40;;;;;;;;;;;;;;;27.03;33.77;101414.63;4116164;28;20466;-73
2023/05/05 08:38:42;;;;;;;;;;;;;;;27.02;33.59;101412.09;4120521;28;20299;-72
2023/05/05 08:40:44;;;;;;;;;;;;;;;26.94;33.77;101419.06;4126311;28;19963;-74
2023/05/05 08:42:45;;;;;;;;;;;;;;;26.84;33.98;101431.69;4129740;28;19929;-73
2023/05/05 08:44:47;;;;;;;;;;;;;;;26.78;33.93;101418.78;4120703;28;19921;-79
2023/05/05 08:46:49;;;;;;;;;;;;;;;26.75;34.17;101419.09;4131617;28;19926;-69
2023/05/05 08:48:53;;;;;;;;;;;;;;;26.75;35.36;101421.78;4118625;28;19932;-67
2023/05/05 08:50:57;;;;;;;;;;;;;;;26.72;34.17;101422.03;4114523;28;20372;-69
2023/05/05 08:53:09;;;;;;;;;;;;;;;26.75;34.53;101424.50;4112622;28;19961;-71
2023/05/05 08:55:18;;;;;;;;;;;;;;;26.69;34.39;101423.19;4112586;28;20028;-72
2023/05/05 08:57:23;;;;;;;;;;;;;;;26.67;34.22;101422.47;4116611;28;20298;-71
2023/05/05 08:59:28;;;;;;;;;;;;;;;26.68;34.76;101420.63;4124253;28;19953;-70
2023/05/05 09:01:31;;;;;;;;;;;;;;;26.65;33.90;101408.28;4118265;28;19926;-66
2023/05/05 09:03:34;;;;;;;;;;;;;;;26.62;34.20;101417.53;4118237;28;19922;-70
2023/05/05 09:05:36;;;;;;;;;;;;;;;26.58;34.56;101416.06;4120161;28;20359;-68
2023/05/05 09:07:40;;;;;;;;;;;;;;;26.59;34.71;101409.69;4111456;28;19922;-66
2023/05/05 09:09:42;;;;;;;;;;;;;;;26.56;34.59;101412.69;4123394;28;20174;-67
2023/05/05 09:11:43;;;;;;;;;;;;;;;26.51;34.81;101419.50;4120209;28;19930;-65
2023/05/05 09:13:46;;;;;;;;;;;;;;;26.49;34.65;101419.66;4119733;28;20025;-64
2023/05/05 09:15:48;;;;;;;;;;;;;;;26.48;34.89;101423.34;4124571;28;19926;-65
2023/05/05 09:17:49;;;;;;;;;;;;;;;26.49;34.20;101426.88;4122522;28;19925;-70
2023/05/05 09:20:04;;;;;;;;;;;;;;;26.48;34.59;101428.72;4119442;28;20017;-67
2023/05/05 09:22:05;;;;;;;;;;;;;;;26.44;34.55;101425.47;4104865;28;19970;-71
2023/05/05 09:24:08;;;;;;;;;;;;;;;26.42;34.47;101423.91;4113739;28;20001;-71
2023/05/05 09:26:10;;;;;;;;;;;;;;;26.40;33.97;101420.50;4128488;28;20025;-74
2023/05/05 09:28:13;;;;;;;;;;;;;;;26.39;33.92;101429.56;4130899;28;20012;-76
2023/05/05 09:30:22;;;;;;;;;;;;;;;26.35;33.61;101422.75;4122496;28;19936;-69
2023/05/05 09:32:24;;;;;;;;;;;;;;;26.33;33.73;101419.34;4130632;28;19968;-70
2023/05/05 09:34:26;;;;;;;;;;;;;;;26.32;33.91;101413.13;4129178;28;19976;-65
2023/05/05 09:36:46;;;;;;;;;;;;;;;26.34;34.17;101415.66;4129313;28;19922;-64
2023/05/05 09:39:04;;;;;;;;;;;;;;;26.32;34.29;101418.50;4130465;28;20390;-67
2023/05/05 09:41:06;;;;;;;;;;;;;;;26.34;34.17;101413.81;4117891;28;20264;-66
2023/05/05 09:43:08;;;;;;;;;;;;;;;26.35;34.05;101415.50;4128595;28;19953;-71
2023/05/05 09:45:18;;;;;;;;;;;;;;;26.39;33.72;101418.78;4110914;28;20358;-66
2023/05/05 09:47:20;;;;;;;;;;;;;;;26.39;33.91;101408.00;4106928;28;19926;-66
2023/05/05 09:49:30;;;;;;;;;;;;;;;26.36;33.81;101402.91;4097235;29;19929;-67
2023/05/05 09:51:35;;;;;;;;;;;;;;;26.19;33.61;101385.59;4125422;28;19925;-69
2023/05/05 09:53:38;;;;;;;;;;;;;;;26.29;33.50;101399.91;4098749;29;20005;-67
2023/05/05 09:55:40;;;;;;;;;;;;;;;26.26;33.77;101400.16;4108486;28;20013;-72
2023/05/05 09:57:42;;;;;;;;;;;;;;;26.26;33.95;101394.78;4127578;28;19932;-70
2023/05/05 09:59:53;;;;;;;;;;;;;;;26.22;33.70;101398.75;4122498;28;19922;-72
2023/05/05 10:02:08;;;;;;;;;;;;;;;26.15;34.00;101391.25;4123498;28;20374;-65
2023/05/05 10:04:21;;;;;;;;;;;;;;;26.18;33.79;101395.50;4122569;28;19921;-68
2023/05/05 10:06:38;;;;;;;;;;;;;;;26.22;33.88;101385.28;4120319;28;20012;-66
2023/05/05 10:08:40;;;;;;;;;;;;;;;26.25;33.44;101379.63;4113062;28;19941;-68
2023/05/05 10:10:50;;;;;;;;;;;;;;;26.26;33.36;101371.38;4126807;28;19934;-68
2023/05/05 10:12:53;;;;;;;;;;;;;;;26.33;33.09;101370.81;4119348;28;20341;-65
2023/05/05 10:14:55;;;;;;;;;;;;;;;26.30;33.02;101370.09;4126206;28;20446;-67
2023/05/05 10:16:59;;;;;;;;;;;;;;;26.28;33.04;101373.94;4114100;28;19929;-66
2023/05/05 10:19:02;;;;;;;;;;;;;;;26.26;33.43;101373.22;4126602;28;19961;-67
2023/05/05 10:21:03;;;;;;;;;;;;;;;26.24;33.28;101364.44;4127735;28;20387;-63
2023/05/05 10:23:06;;;;;;;;;;;;;;;26.26;33.05;101368.69;4119347;28;19922;-65
2023/05/05 10:25:09;;;;;;;;;;;;;;;26.25;33.24;101352.66;4112705;28;19944;-66
2023/05/05 10:27:14;;;;;;;;;;;;;;;26.29;33.08;101346.81;4108957;28;19958;-66
2023/05/05 10:29:21;;;;;;;;;;;;;;;26.33;33.49;101357.31;4127825;28;20020;-67
2023/05/05 10:31:25;;;;;;;;;;;;;;;26.38;33.23;101363.13;4123257;28;19945;-64